Time;durP1;ratioP1;P1;durP2;ratioP2;P2;SDS_P1;SDS_P2;PMS_P1;PMS_P2;Temp;Humidity;BMP_temperature;BMP_pressure;BME280_temperature;BME280_humidity;BME280_pressure;Samples;Min_cycle;Max_cycle;Signal;HPM_P1;HPM_P2
2022/07/20 00:02:21;;;;;;;7.25;3.92;;;;;;;15.45;65.20;97759.87;1845077;77;25740;-76
2022/07/20 00:04:44;;;;;;;5.78;4.03;;;;;;;15.42;65.31;97756.78;1840946;77;25869;-76
2022/07/20 00:07:10;;;;;;;8.25;4.85;;;;;;;15.40;65.42;97753.46;1845207;77;28300;-75
2022/07/20 00:12:22;;;;;;;5.83;4.47;;;;;;;15.36;65.56;97757.17;1845254;77;25771;-75
2022/07/20 00:14:49;;;;;;;7.25;4.25;;;;;;;15.34;65.66;97758.45;1845139;77;25730;-76
2022/07/20 00:17:16;;;;;;;6.67;4.45;;;;;;;15.32;65.67;97754.64;1845079;77;25830;-76
2022/07/20 00:19:43;;;;;;;6.50;4.28;;;;;;;15.29;65.76;97756.45;1844746;77;27415;-75
2022/07/20 00:22:10;;;;;;;5.80;4.25;;;;;;;15.27;65.73;97759.93;1844709;77;26031;-75
2022/07/20 00:24:37;;;;;;;6.15;4.28;;;;;;;15.24;65.81;97763.11;1845001;77;25815;-77
2022/07/20 00:27:04;;;;;;;8.63;4.22;;;;;;;15.22;65.83;97757.07;1844975;77;25464;-76
2022/07/20 00:29:30;;;;;;;8.80;4.00;;;;;;;15.19;65.96;97756.20;1845150;77;26010;-76
2022/07/20 00:31:57;;;;;;;9.90;4.80;;;;;;;15.15;65.98;97754.99;1845159;77;27520;-77
2022/07/20 00:34:23;;;;;;;6.55;3.95;;;;;;;15.13;66.07;97758.47;1844953;77;25720;-75
2022/07/20 00:36:50;;;;;;;5.97;4.60;;;;;;;15.09;66.20;97755.94;1845161;77;25661;-77
2022/07/20 00:39:17;;;;;;;4.67;4.12;;;;;;;15.06;66.29;97749.59;1845238;77;26678;-77
2022/07/20 00:41:43;;;;;;;6.55;4.10;;;;;;;15.04;66.37;97750.34;1845078;77;26605;-76
2022/07/20 00:44:11;;;;;;;5.87;4.10;;;;;;;15.00;66.40;97747.78;1845141;77;27562;-76
2022/07/20 00:46:42;;;;;;;6.33;4.03;;;;;;;14.99;66.48;97747.48;1845007;77;25709;-75
2022/07/20 00:49:11;;;;;;;6.37;3.95;;;;;;;14.94;66.51;97751.44;1845095;77;26526;-77
2022/07/20 00:51:41;;;;;;;5.75;4.00;;;;;;;14.91;66.57;97754.61;1845036;77;25838;-75
2022/07/20 00:54:09;;;;;;;5.42;3.67;;;;;;;14.89;66.68;97746.69;1845135;77;25799;-75
2022/07/20 00:56:36;;;;;;;4.45;3.67;;;;;;;14.87;66.75;97742.00;1844977;77;27511;-75
2022/07/20 00:59:06;;;;;;;5.85;3.80;;;;;;;14.84;66.80;97741.66;1844915;77;25654;-75
2022/07/20 01:01:34;;;;;;;5.97;3.95;;;;;;;14.81;66.83;97742.11;1845173;77;25481;-76
2022/07/20 01:04:01;;;;;;;4.47;3.83;;;;;;;14.78;66.83;97745.58;1845116;77;25848;-75
2022/07/20 01:06:28;;;;;;;5.25;4.17;;;;;;;14.77;66.96;97745.80;1845122;77;25740;-77
2022/07/20 01:08:55;;;;;;;4.90;4.05;;;;;;;14.73;67.01;97741.35;1844913;77;27411;-74
2022/07/20 01:11:22;;;;;;;6.80;4.60;;;;;;;14.72;67.05;97743.80;1844792;77;26294;-75
2022/07/20 01:13:49;;;;;;;6.03;4.10;;;;;;;14.67;67.11;97735.48;1844980;77;25681;-76
2022/07/20 01:16:16;;;;;;;4.60;4.00;;;;;;;14.63;67.18;97742.43;1845074;77;25685;-75
2022/07/20 01:18:43;;;;;;;5.42;3.98;;;;;;;14.61;67.24;97740.46;1845218;77;25427;-75
2022/07/20 01:21:10;;;;;;;9.00;4.20;;;;;;;14.57;67.25;97743.36;1844694;77;27509;-76
2022/07/20 01:23:37;;;;;;;7.92;4.00;;;;;;;14.53;67.33;97738.07;1845034;77;25832;-75
2022/07/20 01:26:04;;;;;;;6.65;3.75;;;;;;;14.49;67.35;97738.22;1845156;77;25686;-76
2022/07/20 01:28:31;;;;;;;5.58;3.83;;;;;;;14.43;67.42;97744.58;1844708;77;25904;-75
2022/07/20 01:30:57;;;;;;;7.60;3.98;;;;;;;14.40;67.61;97740.95;1845234;77;25716;-75
2022/07/20 01:33:24;;;;;;;6.22;4.22;;;;;;;14.39;67.61;97737.89;1845030;77;28159;-74
2022/07/20 01:35:51;;;;;;;9.05;4.58;;;;;;;14.37;67.56;97735.41;1844501;77;25735;-75
2022/07/20 01:38:18;;;;;;;4.78;3.87;;;;;;;14.35;67.63;97738.07;1841406;77;25637;-75
2022/07/20 01:40:44;;;;;;;7.70;4.00;;;;;;;14.33;67.82;97738.82;1811951;79;25752;-77
2022/07/20 01:43:11;;;;;;;5.25;4.10;;;;;;;14.31;67.83;97743.64;1812019;79;25405;-76
2022/07/20 01:45:37;;;;;;;4.47;3.60;;;;;;;14.28;67.90;97744.09;1812002;79;27458;-75
2022/07/20 01:48:04;;;;;;;5.95;4.22;;;;;;;14.23;67.90;97743.43;1811782;79;25848;-75
2022/07/20 01:50:31;;;;;;;5.05;3.65;;;;;;;14.21;68.01;97745.53;1784425;79;25782;-75
2022/07/20 01:52:58;;;;;;;4.83;4.00;;;;;;;14.18;68.05;97746.51;1811999;79;25670;-75
2022/07/20 01:55:24;;;;;;;4.55;3.92;;;;;;;14.16;68.06;97737.75;1811864;79;25867;-75
2022/07/20 01:57:51;;;;;;;6.22;4.20;;;;;;;14.13;68.09;97736.87;1809311;79;28130;-76
2022/07/20 02:00:17;;;;;;;6.00;4.15;;;;;;;14.11;68.16;97737.63;1808331;79;25742;-75
2022/07/20 02:02:44;;;;;;;8.70;4.30;;;;;;;14.08;68.24;97739.42;1808462;79;25740;-75
2022/07/20 02:05:11;;;;;;;4.70;3.47;;;;;;;14.05;68.35;97740.69;1808763;79;25769;-76
2022/07/20 02:07:38;;;;;;;7.10;4.17;;;;;;;14.01;68.42;97744.37;1808721;79;25670;-75
2022/07/20 02:10:07;;;;;;;4.47;3.90;;;;;;;13.98;68.49;97742.14;1808648;78;28254;-74
2022/07/20 02:12:34;;;;;;;4.85;4.30;;;;;;;13.95;68.59;97737.15;1808538;79;25646;-75
2022/07/20 02:15:01;;;;;;;4.95;4.03;;;;;;;13.92;68.63;97737.59;1808622;79;25732;-76
2022/07/20 02:17:27;;;;;;;6.12;4.40;;;;;;;13.90;68.71;97746.47;1779285;79;26514;-75
2022/07/20 02:19:54;;;;;;;5.75;4.20;;;;;;;13.90;68.72;97741.05;1808639;79;26064;-77
2022/07/20 02:22:21;;;;;;;5.90;3.60;;;;;;;13.87;68.75;97744.23;1808419;79;27417;-77
2022/07/20 02:24:47;;;;;;;5.30;3.90;;;;;;;13.82;68.84;97742.70;1808561;79;25413;-75
2022/07/20 02:27:14;;;;;;;6.50;4.00;;;;;;;13.79;68.92;97740.43;1808720;79;25870;-76
2022/07/20 02:29:40;;;;;;;5.25;3.90;;;;;;;13.77;69.06;97739.81;1808719;79;25681;-76
2022/07/20 02:32:07;;;;;;;3.85;3.45;;;;;;;13.73;69.05;97738.63;1808613;79;25701;-76
2022/07/20 02:34:33;;;;;;;6.83;3.80;;;;;;;13.72;69.16;97739.67;1808696;79;27986;-75
2022/07/20 02:37:00;;;;;;;4.53;4.08;;;;;;;13.70;69.20;97744.49;1808676;79;25699;-75
2022/07/20 02:39:26;;;;;;;6.05;4.05;;;;;;;13.65;69.25;97744.31;1808643;79;25733;-75
2022/07/20 02:41:53;;;;;;;7.95;3.67;;;;;;;13.64;69.33;97742.69;1808817;79;25746;-75
2022/07/20 02:44:19;;;;;;;6.62;3.87;;;;;;;13.59;69.35;97739.27;1808748;79;25706;-75
2022/07/20 02:46:46;;;;;;;7.08;4.30;;;;;;;13.57;69.46;97741.89;1808698;79;27416;-77
2022/07/20 02:49:12;;;;;;;5.30;3.83;;;;;;;13.56;69.54;97747.02;1808777;79;25589;-76
2022/07/20 02:51:39;;;;;;;5.22;3.92;;;;;;;13.54;69.55;97748.59;1808999;78;25711;-75
2022/07/20 02:54:05;;;;;;;8.18;4.00;;;;;;;13.54;69.58;97743.69;1808953;79;25707;-74
2022/07/20 02:56:32;;;;;;;6.42;3.85;;;;;;;13.54;69.63;97751.83;1808887;79;25630;-75
2022/07/20 02:58:58;;;;;;;5.33;3.62;;;;;;;13.53;69.59;97755.59;1808569;79;27435;-75
2022/07/20 03:01:25;;;;;;;9.65;4.20;;;;;;;13.51;69.62;97755.83;1808805;79;25662;-76
2022/07/20 03:03:51;;;;;;;5.92;4.12;;;;;;;13.50;69.74;97756.05;1808937;79;25179;-75
2022/07/20 03:06:20;;;;;;;7.47;3.98;;;;;;;13.49;69.81;97755.74;1808705;79;26294;-76
2022/07/20 03:08:46;;;;;;;4.83;3.60;;;;;;;13.47;69.86;97753.77;1808902;79;26685;-75
2022/07/20 03:11:13;;;;;;;5.03;4.05;;;;;;;13.48;69.89;97757.63;1808739;79;28103;-77
2022/07/20 03:13:39;;;;;;;5.40;4.05;;;;;;;13.47;69.90;97746.99;1808750;79;25890;-75
2022/07/20 03:16:06;;;;;;;5.12;4.35;;;;;;;13.46;70.07;97748.05;1808849;79;25683;-76
2022/07/20 03:18:33;;;;;;;7.12;4.15;;;;;;;13.46;70.15;97748.05;1808841;79;26282;-76
2022/07/20 03:20:59;;;;;;;8.43;3.95;;;;;;;13.42;70.18;97752.23;1808759;79;26786;-75
2022/07/20 03:23:26;;;;;;;6.67;4.42;;;;;;;13.37;70.29;97748.02;1808684;79;28135;-76
2022/07/20 03:25:52;;;;;;;6.40;4.70;;;;;;;13.38;70.33;97753.75;1808674;79;25737;-76
2022/07/20 03:28:19;;;;;;;7.08;4.50;;;;;;;13.40;70.41;97759.78;1808651;79;25884;-75
2022/07/20 03:30:45;;;;;;;5.70;4.25;;;;;;;13.39;70.40;97756.77;1808756;79;25715;-75
2022/07/20 03:33:12;;;;;;;5.22;4.12;;;;;;;13.36;70.42;97757.20;1808890;79;26052;-74
2022/07/20 03:35:38;;;;;;;6.78;4.30;;;;;;;13.32;70.51;97757.63;1808813;79;28445;-75
2022/07/20 03:38:06;;;;;;;5.20;3.85;;;;;;;13.33;70.62;97757.94;1808634;79;43861;-75
2022/07/20 03:40:32;;;;;;;11.25;4.42;;;;;;;13.36;70.62;97766.17;1808552;79;25663;-76
2022/07/20 03:42:59;;;;;;;6.60;4.35;;;;;;;13.38;70.70;97767.30;1808739;79;25838;-75
2022/07/20 03:45:25;;;;;;;6.67;4.33;;;;;;;13.40;70.72;97765.21;1808939;79;25694;-75
2022/07/20 03:47:52;;;;;;;6.72;4.00;;;;;;;13.41;70.76;97766.31;1808914;79;27343;-75
2022/07/20 03:50:18;;;;;;;7.35;4.40;;;;;;;13.42;70.83;97768.51;1808865;79;25697;-75
2022/07/20 03:52:45;;;;;;;6.30;4.70;;;;;;;13.42;70.91;97772.58;1809066;79;25677;-75
2022/07/20 03:55:12;;;;;;;11.15;5.17;;;;;;;13.42;70.96;97777.47;1808549;79;25689;-75
2022/07/20 03:57:38;;;;;;;8.25;4.75;;;;;;;13.43;71.06;97771.53;1809664;78;26234;-75
2022/07/20 04:00:07;;;;;;;8.33;5.17;;;;;;;13.43;71.14;97778.30;1812482;79;27464;-75
2022/07/20 04:02:34;;;;;;;11.65;6.33;;;;;;;13.45;71.20;97777.56;1812221;79;25744;-75
2022/07/20 04:05:00;;;;;;;9.83;6.85;;;;;;;13.48;71.29;97777.13;1812395;79;25689;-75
2022/07/20 04:07:27;;;;;;;18.10;8.58;;;;;;;13.50;71.36;97773.16;1812304;79;26432;-75
2022/07/20 04:09:53;;;;;;;16.27;8.45;;;;;;;13.55;71.45;97776.54;1811863;79;25956;-75
2022/07/20 04:12:23;;;;;;;16.20;8.23;;;;;;;13.58;71.50;97773.39;1812132;79;28199;-75
2022/07/20 04:14:52;;;;;;;16.25;8.35;;;;;;;13.61;71.51;97777.03;1812105;79;25427;-75
2022/07/20 04:17:22;;;;;;;12.18;7.22;;;;;;;13.65;71.66;97779.58;1812069;79;25878;-76
2022/07/20 04:19:49;;;;;;;15.98;8.83;;;;;;;13.68;71.78;97785.40;1812252;79;25715;-76
2022/07/20 04:22:16;;;;;;;15.40;8.18;;;;;;;13.74;71.73;97786.41;1811967;79;26065;-76
2022/07/20 04:24:42;;;;;;;13.13;7.92;;;;;;;13.78;71.71;97783.53;1812261;79;27352;-76
2022/07/20 04:27:09;;;;;;;11.48;7.30;;;;;;;13.80;71.81;97781.96;1812083;79;25755;-76
2022/07/20 04:29:35;;;;;;;16.25;9.40;;;;;;;13.84;71.95;97786.73;1812142;79;25673;-76
2022/07/20 04:32:02;;;;;;;19.07;12.50;;;;;;;13.90;71.97;97788.54;1812152;79;25755;-76
2022/07/20 04:34:28;;;;;;;15.50;12.80;;;;;;;13.96;72.07;97786.30;1812044;79;25994;-76
2022/07/20 04:36:55;;;;;;;16.95;12.37;;;;;;;13.98;72.16;97788.27;1812299;79;27388;-76
2022/07/20 04:39:22;;;;;;;14.75;9.20;;;;;;;14.03;72.22;97787.58;1812018;79;25222;-77
2022/07/20 04:41:49;;;;;;;12.90;8.80;;;;;;;14.10;72.28;97797.86;1812287;79;25716;-76
2022/07/20 04:44:15;;;;;;;10.53;7.53;;;;;;;14.15;72.23;97796.65;1812285;79;26470;-76
2022/07/20 04:46:42;;;;;;;12.20;7.12;;;;;;;14.20;72.27;97794.62;1812134;79;25680;-76
2022/07/20 04:49:08;;;;;;;10.55;6.20;;;;;;;14.25;72.20;97788.81;1812170;79;28147;-77
2022/07/20 04:51:35;;;;;;;12.40;6.30;;;;;;;14.35;72.24;97789.67;1811950;79;25776;-77
2022/07/20 04:54:03;;;;;;;9.53;6.72;;;;;;;14.42;72.16;97789.09;1812152;79;25724;-76
2022/07/20 04:56:29;;;;;;;9.80;6.87;;;;;;;14.51;72.15;97786.36;1812166;79;25806;-77
2022/07/20 04:58:56;;;;;;;14.28;6.83;;;;;;;14.61;72.25;97794.00;1811634;79;25701;-77
2022/07/20 05:01:24;;;;;;;11.93;5.78;;;;;;;14.67;72.25;97789.00;1811594;79;27601;-76
2022/07/20 05:03:52;;;;;;;9.95;6.20;;;;;;;14.73;72.17;97787.55;1811704;79;25715;-76
2022/07/20 05:06:18;;;;;;;10.48;6.28;;;;;;;14.80;72.15;97791.55;1811485;79;25785;-76
2022/07/20 05:08:45;;;;;;;10.72;7.17;;;;;;;14.87;72.20;97791.45;1811609;79;25801;-77
2022/07/20 05:11:12;;;;;;;9.08;6.70;;;;;;;14.95;72.21;97790.63;1811966;79;25744;-76
2022/07/20 05:13:39;;;;;;;9.70;6.85;;;;;;;15.03;72.32;97785.39;1811873;79;27315;-77
2022/07/20 05:16:06;;;;;;;9.30;6.50;;;;;;;15.12;72.48;97789.44;1811686;79;26382;-76
2022/07/20 05:18:33;;;;;;;12.88;6.30;;;;;;;15.22;72.51;97783.44;1811817;79;25664;-77
2022/07/20 05:21:00;;;;;;;12.20;6.20;;;;;;;15.31;72.47;97785.61;1811777;79;25709;-76
2022/07/20 05:23:27;;;;;;;8.18;5.83;;;;;;;15.40;72.40;97785.58;1811713;79;25764;-77
2022/07/20 05:25:53;;;;;;;9.48;6.22;;;;;;;15.49;72.14;97778.72;1811947;78;27338;-76
2022/07/20 05:28:20;;;;;;;14.35;6.42;;;;;;;15.60;71.99;97782.56;1811768;79;25773;-77
2022/07/20 05:30:49;;;;;;;9.45;6.60;;;;;;;15.71;71.84;97770.03;1811871;79;26617;-77
2022/07/20 05:33:16;;;;;;;11.85;6.75;;;;;;;15.81;71.69;97773.85;1778565;80;26537;-77
2022/07/20 05:35:44;;;;;;;9.18;6.78;;;;;;;15.94;71.55;97780.93;1746995;82;25793;-75
2022/07/20 05:38:10;;;;;;;8.35;5.67;;;;;;;16.04;71.38;97781.20;1738956;82;27459;-76
2022/07/20 05:40:37;;;;;;;11.12;6.58;;;;;;;16.15;71.34;97783.08;1738995;82;25788;-75
2022/07/20 05:43:04;;;;;;;10.35;6.05;;;;;;;16.27;71.28;97775.44;1738871;82;25784;-76
2022/07/20 05:45:30;;;;;;;9.98;5.70;;;;;;;16.37;71.18;97774.29;1739049;82;25875;-76
2022/07/20 05:47:57;;;;;;;7.70;5.95;;;;;;;16.47;70.75;97779.95;1739213;82;25513;-76
2022/07/20 05:50:24;;;;;;;8.93;5.65;;;;;;;16.56;70.64;97769.80;1739153;82;27599;-76
2022/07/20 05:52:50;;;;;;;8.80;5.30;;;;;;;16.68;70.52;97771.16;1738977;82;25730;-76
2022/07/20 05:55:17;;;;;;;10.55;5.60;;;;;;;16.77;70.38;97773.83;1739070;82;25716;-76
2022/07/20 05:57:43;;;;;;;8.03;5.42;;;;;;;16.88;70.58;97768.03;1738303;82;25780;-76
2022/07/20 06:00:11;;;;;;;7.35;5.55;;;;;;;16.98;70.30;97767.41;1733599;82;25883;-76
2022/07/20 06:02:38;;;;;;;8.18;5.75;;;;;;;17.08;70.19;97757.51;1733856;82;27265;-76
2022/07/20 06:05:05;;;;;;;8.30;5.05;;;;;;;17.17;69.95;97758.77;1733608;82;25492;-76
2022/07/20 06:07:31;;;;;;;10.13;6.00;;;;;;;17.29;69.83;97761.42;1733789;82;25354;-76
2022/07/20 06:09:58;;;;;;;9.28;6.55;;;;;;;17.39;69.56;97759.45;1733634;82;25769;-76
2022/07/20 06:12:25;;;;;;;8.18;6.03;;;;;;;17.49;69.40;97760.45;1733800;82;25801;-76
2022/07/20 06:14:51;;;;;;;6.92;4.85;;;;;;;17.61;69.28;97761.20;1733857;82;27430;-76
2022/07/20 06:17:18;;;;;;;7.78;6.10;;;;;;;17.73;69.24;97763.05;1733870;82;25364;-76
2022/07/20 06:19:44;;;;;;;11.00;5.80;;;;;;;17.84;69.14;97762.13;1733829;82;25788;-76
2022/07/20 06:22:11;;;;;;;8.65;5.37;;;;;;;17.97;69.04;97763.16;1733750;82;26721;-76
2022/07/20 06:24:37;;;;;;;10.00;5.87;;;;;;;18.08;68.91;97771.80;1733944;82;25909;-76
2022/07/20 06:27:04;;;;;;;13.10;5.83;;;;;;;18.23;68.82;97770.63;1733894;82;28513;-75
2022/07/20 06:29:30;;;;;;;10.25;5.92;;;;;;;18.36;68.82;97771.64;1743214;81;25762;-76
2022/07/20 06:31:57;;;;;;;9.78;6.00;;;;;;;18.53;68.64;97777.08;1770619;81;25778;-76
2022/07/20 06:34:23;;;;;;;9.88;6.17;;;;;;;18.65;68.39;97768.78;1770492;81;25716;-76
2022/07/20 06:36:50;;;;;;;6.17;5.12;;;;;;;18.76;68.25;97765.09;1770452;81;25758;-76
2022/07/20 06:39:16;;;;;;;7.87;5.47;;;;;;;18.93;68.01;97776.80;1770660;81;28416;-76
2022/07/20 06:41:43;;;;;;;6.50;4.92;;;;;;;19.04;67.61;97775.83;1770461;81;26304;-76
2022/07/20 06:44:09;;;;;;;7.60;5.35;;;;;;;19.16;67.40;97778.42;1770622;81;25788;-75
2022/07/20 06:46:36;;;;;;;7.15;5.17;;;;;;;19.32;67.36;97773.94;1770632;81;26550;-76
2022/07/20 06:49:03;;;;;;;7.97;5.37;;;;;;;19.46;66.96;97771.59;1770636;81;25795;-76
2022/07/20 06:51:29;;;;;;;6.25;4.58;;;;;;;19.59;66.89;97772.56;1770571;81;28427;-76
2022/07/20 06:53:56;;;;;;;9.33;5.42;;;;;;;19.71;66.53;97765.00;1770450;81;25785;-76
2022/07/20 06:56:22;;;;;;;5.80;4.65;;;;;;;19.84;66.20;97774.70;1770548;81;25754;-76
2022/07/20 06:58:49;;;;;;;7.75;4.60;;;;;;;19.96;65.90;97776.71;1767768;80;25683;-76
2022/07/20 07:01:15;;;;;;;7.08;4.78;;;;;;;20.08;65.39;97771.33;1733065;82;25620;-76
2022/07/20 07:03:42;;;;;;;7.30;4.53;;;;;;;20.24;64.92;97765.41;1765087;81;27576;-76
2022/07/20 07:06:08;;;;;;;9.18;5.28;;;;;;;20.36;64.88;97767.98;1733011;82;25695;-76
2022/07/20 07:08:35;;;;;;;7.25;4.62;;;;;;;20.48;64.61;97774.91;1765087;81;25742;-76
2022/07/20 07:11:01;;;;;;;9.00;5.37;;;;;;;20.58;64.72;97767.28;1732916;82;25724;-76
2022/07/20 07:13:28;;;;;;;6.28;5.40;;;;;;;20.73;64.39;97767.91;1765271;81;25616;-76
2022/07/20 07:15:55;;;;;;;6.35;4.55;;;;;;;20.86;64.00;97763.30;1732864;82;27529;-76
2022/07/20 07:18:21;;;;;;;7.72;5.50;;;;;;;20.99;63.89;97764.17;1764880;81;25964;-76
2022/07/20 07:20:48;;;;;;;6.55;4.58;;;;;;;21.13;63.89;97763.12;1733001;82;25653;-76
2022/07/20 07:23:15;;;;;;;6.20;4.35;;;;;;;21.26;63.39;97767.27;1764850;81;25936;-76
2022/07/20 07:25:42;;;;;;;6.50;4.70;;;;;;;21.39;62.85;97761.26;1732828;82;25608;-76
2022/07/20 07:28:08;;;;;;;6.35;4.60;;;;;;;21.54;62.68;97762.66;1765237;81;28024;-76
2022/07/20 07:30:35;;;;;;;8.45;4.95;;;;;;;21.68;62.79;97762.41;1732742;82;26413;-76
2022/07/20 07:33:01;;;;;;;8.58;4.87;;;;;;;21.82;62.69;97763.52;1765241;81;25723;-76
2022/07/20 07:35:28;;;;;;;6.37;4.83;;;;;;;21.96;63.33;97756.91;1732978;82;25870;-76
2022/07/20 07:37:54;;;;;;;8.58;4.85;;;;;;;22.10;62.89;97757.19;1765301;81;25681;-76
2022/07/20 07:40:21;;;;;;;7.90;5.17;;;;;;;22.27;62.84;97735.72;1732865;82;27377;-77
2022/07/20 07:42:48;;;;;;;7.65;5.33;;;;;;;22.27;62.84;97735.72;1765051;81;25648;-76
2022/07/20 07:45:14;;;;;;;8.18;5.20;;;;;;;22.53;62.42;97755.73;1732964;82;25665;-77
2022/07/20 07:47:42;;;;;;;8.83;4.83;;;;;;;22.68;62.50;97758.45;1765203;81;25751;-76
2022/07/20 07:50:09;;;;;;;7.75;4.97;;;;;;;22.84;61.43;97754.55;1732983;82;25677;-76
2022/07/20 07:52:35;;;;;;;7.10;4.62;;;;;;;23.05;61.86;97749.79;1765111;81;27364;-76
2022/07/20 07:55:03;;;;;;;7.87;5.45;;;;;;;23.32;61.83;97746.03;1732800;81;25811;-76
2022/07/20 07:57:29;;;;;;;7.80;4.45;;;;;;;23.72;61.40;97747.44;1765209;81;25719;-77
2022/07/20 07:59:56;;;;;;;9.25;4.85;;;;;;;24.17;60.85;97744.83;1732895;81;25823;-77
2022/07/20 08:02:22;;;;;;;9.95;4.85;;;;;;;24.65;59.91;97749.86;1770603;81;26549;-77
2022/07/20 08:04:49;;;;;;;8.48;5.37;;;;;;;25.13;58.97;97747.91;1770498;81;26965;-77
2022/07/20 08:07:16;;;;;;;7.15;4.28;;;;;;;25.62;58.33;97753.59;1770426;81;25703;-77
2022/07/20 08:09:42;;;;;;;9.63;5.05;;;;;;;26.04;57.02;97748.49;1770494;81;25730;-77
2022/07/20 08:12:09;;;;;;;6.25;4.92;;;;;;;26.47;56.42;97747.73;1770516;81;25818;-77
2022/07/20 08:14:35;;;;;;;6.72;4.55;;;;;;;26.89;55.81;97741.91;1770491;81;25738;-78
2022/07/20 08:17:02;;;;;;;7.40;4.45;;;;;;;27.32;54.44;97745.72;1770304;81;27434;-78
2022/07/20 08:19:28;;;;;;;5.25;4.35;;;;;;;27.62;53.65;97741.47;1770394;81;25980;-78
2022/07/20 08:21:55;;;;;;;5.53;4.17;;;;;;;28.00;53.38;97735.55;1770449;81;25749;-78
2022/07/20 08:24:22;;;;;;;7.90;4.87;;;;;;;28.30;52.06;97736.98;1770154;81;25769;-78
2022/07/20 08:26:49;;;;;;;9.15;4.80;;;;;;;28.56;51.49;97734.34;1770752;81;25743;-78
2022/07/20 08:29:15;;;;;;;6.50;4.37;;;;;;;28.74;50.48;97733.03;1770504;81;27426;-79
2022/07/20 08:31:42;;;;;;;7.55;4.20;;;;;;;29.02;50.31;97734.45;1770316;81;25922;-79
2022/07/20 08:34:08;;;;;;;8.80;4.35;;;;;;;29.39;49.91;97727.52;1770486;81;25691;-78
2022/07/20 08:36:35;;;;;;;6.40;4.53;;;;;;;29.72;48.95;97734.22;1770526;81;25782;-79
2022/07/20 08:39:02;;;;;;;9.03;3.95;;;;;;;29.90;48.41;97723.09;1770505;81;25660;-78
2022/07/20 08:41:32;;;;;;;7.70;4.58;;;;;;;30.24;47.71;97734.77;1770601;81;27386;-76
2022/07/20 08:43:59;;;;;;;5.53;4.25;;;;;;;30.60;46.93;97731.00;1770322;80;25762;-77
2022/07/20 08:46:29;;;;;;;8.23;4.53;;;;;;;30.95;46.05;97732.23;1770503;81;25746;-76
2022/07/20 08:48:57;;;;;;;7.35;4.05;;;;;;;31.22;45.08;97725.39;1770569;80;25785;-77
2022/07/20 08:51:24;;;;;;;10.05;4.10;;;;;;;31.45;44.84;97725.30;1770465;81;26032;-79
2022/07/20 08:53:50;;;;;;;4.62;3.42;;;;;;;31.80;44.16;97715.52;1770567;80;28181;-76
2022/07/20 08:56:17;;;;;;;6.75;4.22;;;;;;;32.14;43.32;97719.13;1770377;80;25496;-78
2022/07/20 08:58:44;;;;;;;5.78;3.67;;;;;;;32.44;43.00;97712.27;1770881;80;25744;-76
2022/07/20 09:01:15;;;;;;;7.83;3.77;;;;;;;32.61;42.02;97715.42;1773751;80;26512;-77
2022/07/20 09:03:44;;;;;;;6.33;3.52;;;;;;;32.71;41.60;97718.37;1773756;80;25725;-78
2022/07/20 09:06:11;;;;;;;4.58;3.17;;;;;;;32.75;40.76;97713.72;1773881;80;27414;-75
2022/07/20 09:08:59;;;;;;;6.05;3.60;;;;;;;32.89;40.05;97714.20;1773768;80;25685;-75
2022/07/20 09:11:27;;;;;;;7.60;3.33;;;;;;;33.09;39.51;97714.64;1739375;82;25815;-76
2022/07/20 09:13:53;;;;;;;4.35;3.37;;;;;;;33.42;38.33;97710.92;1739250;82;26569;-76
2022/07/20 09:16:46;;;;;;;5.17;3.10;;;;;;;33.71;37.41;97713.97;1739251;82;25767;-76
2022/07/20 09:19:10;;;;;;;5.53;3.10;;;;;;;33.95;36.94;97710.52;1735429;82;27500;-75
2022/07/20 09:21:36;;;;;;;6.35;3.42;;;;;;;34.16;36.53;97701.11;1739415;82;25752;-76
2022/07/20 09:24:06;;;;;;;8.60;3.45;;;;;;;34.35;35.62;97698.45;1739205;82;25934;-76
2022/07/20 09:26:35;;;;;;;6.42;3.20;;;;;;;34.51;35.06;97706.87;1739409;82;26319;-76
2022/07/20 09:29:05;;;;;;;3.92;3.15;;;;;;;34.75;34.82;97701.69;1739225;82;25458;-77
2022/07/20 09:31:38;;;;;;;4.00;2.92;;;;;;;34.92;33.94;97702.14;1736456;82;26749;-76
2022/07/20 09:34:08;;;;;;;5.12;3.45;;;;;;;35.02;33.73;97698.77;1739251;82;25821;-77
2022/07/20 09:36:38;;;;;;;6.58;3.50;;;;;;;35.18;33.27;97700.74;1739346;82;25759;-77
2022/07/20 09:39:16;;;;;;;6.00;3.50;;;;;;;35.10;32.61;97695.56;1739341;82;25831;-76
2022/07/20 09:41:53;;;;;;;4.25;3.02;;;;;;;34.86;32.27;97692.39;1712317;83;25940;-79
2022/07/20 09:44:26;;;;;;;6.25;3.37;;;;;;;34.93;33.30;97690.33;1709808;83;27426;-77
2022/07/20 09:46:54;;;;;;;6.83;3.33;;;;;;;34.97;33.18;97689.84;1646898;87;25865;-76
2022/07/20 09:49:27;;;;;;;6.22;3.30;;;;;;;35.14;33.29;97689.42;1646952;87;25747;-77
2022/07/20 09:52:03;;;;;;;6.45;3.45;;;;;;;35.30;33.22;97684.63;1643574;87;25866;-77
2022/07/20 09:54:29;;;;;;;5.53;3.50;;;;;;;35.38;33.09;97687.81;1646986;87;25825;-76
2022/07/20 09:56:56;;;;;;;3.72;3.05;;;;;;;35.43;32.89;97690.12;1646822;87;28448;-75
2022/07/20 09:59:22;;;;;;;7.15;3.77;;;;;;;35.47;32.21;97684.81;1646627;87;26209;-76
2022/07/20 10:01:54;;;;;;;5.92;3.40;;;;;;;35.52;31.39;97691.53;1646670;87;25796;-77
2022/07/20 10:04:22;;;;;;;7.72;3.72;;;;;;;35.51;30.74;97689.90;1646541;87;25822;-77
2022/07/20 10:06:54;;;;;;;4.97;3.55;;;;;;;35.43;30.35;97687.31;1646751;87;25746;-77
2022/07/20 10:09:21;;;;;;;8.45;3.55;;;;;;;35.33;30.53;97683.91;1646558;87;27399;-76
2022/07/20 10:11:48;;;;;;;6.75;3.65;;;;;;;35.33;29.92;97682.50;1646531;87;25736;-75
2022/07/20 10:14:19;;;;;;;5.00;3.17;;;;;;;35.32;29.19;97678.07;1646470;87;25837;-75
2022/07/20 10:16:52;;;;;;;9.23;3.58;;;;;;;35.17;29.54;97678.07;1646750;87;25881;-75
2022/07/20 10:19:21;;;;;;;7.78;3.50;;;;;;;35.25;29.58;97677.92;1646520;87;25880;-75
2022/07/20 10:21:53;;;;;;;6.35;3.10;;;;;;;35.41;29.39;97686.86;1646600;87;27480;-75
2022/07/20 10:24:30;;;;;;;4.85;2.87;;;;;;;35.44;28.79;97682.73;1646156;87;25870;-76
2022/07/20 10:27:25;;;;;;;4.92;3.22;;;;;;;35.35;28.68;97680.15;1646500;87;26390;-75
2022/07/20 10:29:54;;;;;;;6.78;3.02;;;;;;;35.45;28.60;97682.15;1593469;90;25935;-75
2022/07/20 10:32:25;;;;;;;5.20;2.75;;;;;;;35.35;28.53;97675.13;1593501;90;25403;-76
2022/07/20 10:34:55;;;;;;;4.75;3.27;;;;;;;35.32;28.57;97669.65;1593616;89;28224;-76
2022/07/20 10:37:41;;;;;;;4.90;3.25;;;;;;;35.45;28.40;97663.91;1593452;89;26399;-76
2022/07/20 10:40:23;;;;;;;4.03;2.72;;;;;;;35.43;28.37;97661.46;1593043;90;25977;-76
2022/07/20 10:43:11;;;;;;;4.67;3.00;;;;;;;35.43;28.95;97667.66;1600529;87;25801;-76
2022/07/20 10:45:38;;;;;;;3.77;3.02;;;;;;;35.35;28.55;97668.92;1648697;87;25949;-76
2022/07/20 10:48:16;;;;;;;4.75;2.95;;;;;;;35.18;28.29;97665.08;1648671;87;27091;-75
2022/07/20 10:50:56;;;;;;;4.55;2.83;;;;;;;35.16;28.76;97670.24;1648788;87;25744;-76
2022/07/20 10:53:28;;;;;;;10.88;3.50;;;;;;;35.26;28.65;97666.89;1648664;87;25782;-76
2022/07/20 10:55:58;;;;;;;5.53;3.45;;;;;;;35.38;28.14;97663.95;1648618;87;25791;-76
2022/07/20 10:58:35;;;;;;;5.55;2.90;;;;;;;35.29;28.37;97663.36;1648727;87;25756;-76
2022/07/20 11:01:12;;;;;;;3.92;3.02;;;;;;;35.34;28.14;97658.88;1648503;86;28237;-77
2022/07/20 11:03:42;;;;;;;7.17;3.55;;;;;;;35.43;28.16;97658.66;1648789;87;25620;-77
2022/07/20 11:06:21;;;;;;;3.77;2.90;;;;;;;35.52;28.16;97659.84;1669292;81;25850;-76
2022/07/20 11:08:55;;;;;;;4.35;3.00;;;;;;;35.60;27.77;97661.63;1770652;80;25829;-76
2022/07/20 11:11:26;;;;;;;6.83;3.37;;;;;;;35.51;27.94;97656.21;1770638;81;25410;-76
2022/07/20 11:13:53;;;;;;;3.15;2.52;;;;;;;35.59;28.07;97653.80;1771078;81;27452;-76
2022/07/20 11:16:24;;;;;;;7.75;3.65;;;;;;;35.66;27.96;97645.52;1770566;81;25666;-77
2022/07/20 11:18:51;;;;;;;3.80;3.27;;;;;;;35.57;28.11;97646.92;1771045;81;25702;-77
2022/07/20 11:21:31;;;;;;;7.37;3.37;;;;;;;35.63;27.81;97643.44;1770593;81;26542;-77
2022/07/20 11:23:59;;;;;;;5.08;3.37;;;;;;;35.63;28.08;97637.81;1769169;81;25221;-76
2022/07/20 11:26:25;;;;;;;7.35;3.50;;;;;;;35.67;27.67;97636.50;1770759;81;27449;-76
2022/07/20 11:28:56;;;;;;;9.68;3.67;;;;;;;35.68;27.59;97636.72;1770615;81;25704;-76
2022/07/20 11:31:29;;;;;;;4.85;3.33;;;;;;;35.70;27.52;97639.97;1770607;81;25956;-76
2022/07/20 11:33:58;;;;;;;6.85;3.47;;;;;;;35.80;27.50;97646.42;1770580;81;26547;-76
2022/07/20 11:36:30;;;;;;;5.45;3.00;;;;;;;35.71;27.54;97634.59;1770682;81;25426;-76
2022/07/20 11:39:01;;;;;;;6.22;3.67;;;;;;;35.72;27.31;97637.62;1695189;84;27395;-76